createdAt,value
2022-11-15T00:00:55.323Z,4.42
2022-11-15T00:03:25.100Z,4.29
2022-11-15T00:05:53.070Z,4.30
2022-11-15T00:08:21.241Z,4.39
2022-11-15T00:10:58.053Z,4.27
2022-11-15T00:13:25.926Z,4.29
2022-11-15T00:15:54.297Z,4.18
2022-11-15T00:18:22.523Z,4.23
2022-11-15T00:20:50.371Z,4.20
2022-11-15T00:23:18.317Z,4.15
2022-11-15T00:25:46.230Z,4.05
2022-11-15T00:28:15.526Z,3.93
2022-11-15T00:30:43.403Z,4.12
2022-11-15T00:33:11.978Z,3.97
2022-11-15T00:35:39.920Z,3.89
2022-11-15T00:38:07.900Z,3.99
2022-11-15T00:40:35.893Z,3.92
2022-11-15T00:43:03.795Z,3.96
2022-11-15T00:45:33.075Z,4.04
2022-11-15T00:48:00.928Z,3.99
2022-11-15T00:50:28.861Z,3.90
2022-11-15T00:52:56.842Z,3.91
2022-11-15T00:55:24.770Z,3.88
2022-11-15T00:57:52.707Z,3.98
2022-11-15T01:00:20.804Z,3.90
2022-11-15T01:02:50.065Z,3.86
2022-11-15T01:05:18.312Z,3.93
2022-11-15T01:07:46.344Z,3.88
2022-11-15T01:10:17.179Z,3.90
2022-11-15T01:12:45.556Z,3.92
2022-11-15T01:15:13.835Z,3.90
2022-11-15T01:17:42.391Z,3.84
2022-11-15T01:20:12.616Z,3.99
2022-11-15T01:22:40.440Z,4.05
2022-11-15T01:25:08.644Z,4.07
2022-11-15T01:27:36.643Z,4.11
2022-11-15T01:30:05.721Z,4.25
2022-11-15T01:32:34.089Z,4.25
2022-11-15T01:35:02.193Z,4.10
2022-11-15T01:37:31.464Z,4.15
2022-11-15T01:39:59.634Z,4.09
2022-11-15T01:42:27.558Z,4.16
2022-11-15T01:44:55.923Z,4.05
2022-11-15T01:47:27.852Z,4.08
2022-11-15T01:50:02.916Z,4.02
2022-11-15T01:52:34.992Z,4.00
2022-11-15T01:55:11.768Z,3.82
2022-11-15T01:57:40.187Z,3.76
2022-11-15T02:00:09.548Z,3.78
2022-11-15T02:02:40.677Z,3.82
2022-11-15T02:05:09.384Z,3.58
2022-11-15T02:07:39.164Z,3.48
2022-11-15T02:10:11.099Z,3.44
2022-11-15T02:12:39.700Z,3.47
2022-11-15T02:15:09.625Z,3.39
2022-11-15T02:17:51.607Z,3.44
2022-11-15T02:20:53.869Z,3.36
2022-11-15T02:23:57.760Z,3.24
2022-11-15T02:26:53.677Z,3.28
2022-11-15T02:29:38.857Z,3.14
2022-11-15T02:32:15.944Z,3.15
2022-11-15T02:34:53.354Z,3.18
2022-11-15T02:37:29.102Z,3.14
2022-11-15T02:40:04.710Z,3.02
2022-11-15T02:42:55.080Z,3.02
2022-11-15T02:45:27.922Z,3.03
2022-11-15T02:48:01.542Z,2.99
2022-11-15T02:50:31.962Z,2.98
2022-11-15T02:52:59.866Z,2.89
2022-11-15T02:55:33.245Z,2.97
2022-11-15T02:58:17.302Z,3.06
2022-11-15T03:00:55.949Z,3.10
2022-11-15T03:03:42.616Z,3.11
2022-11-15T03:06:21.799Z,3.10
2022-11-15T03:08:56.757Z,3.15
2022-11-15T03:11:26.106Z,3.22
2022-11-15T03:14:00.809Z,3.16
2022-11-15T03:16:34.409Z,3.33
2022-11-15T03:19:09.023Z,3.35
2022-11-15T03:21:41.053Z,3.36
2022-11-15T03:24:10.635Z,3.36
2022-11-15T03:26:43.187Z,3.49
2022-11-15T03:29:15.661Z,3.24
2022-11-15T03:31:51.478Z,3.38
2022-11-15T03:34:28.556Z,3.31
2022-11-15T03:36:56.853Z,3.22
2022-11-15T03:39:26.072Z,3.39
2022-11-15T03:42:04.312Z,3.42
2022-11-15T03:44:42.424Z,3.35
2022-11-15T03:47:14.780Z,3.47
2022-11-15T03:49:48.579Z,3.56
2022-11-15T03:52:20.055Z,3.67
2022-11-15T03:54:52.793Z,3.77
2022-11-15T03:57:20.878Z,3.73
2022-11-15T03:59:48.845Z,3.74
2022-11-15T04:02:16.826Z,3.64
2022-11-15T04:04:46.116Z,3.62
2022-11-15T04:07:14.101Z,3.65
2022-11-15T04:09:56.307Z,3.49
2022-11-15T04:12:31.847Z,3.60
2022-11-15T04:15:11.719Z,3.55
2022-11-15T04:17:41.347Z,3.59
2022-11-15T04:20:31.887Z,3.49
2022-11-15T04:23:18.741Z,3.51
2022-11-15T04:25:47.702Z,3.58
2022-11-15T04:28:15.601Z,3.52
2022-11-15T04:30:43.491Z,3.69
2022-11-15T04:33:11.540Z,3.65
2022-11-15T04:35:41.075Z,3.78
2022-11-15T04:38:10.144Z,3.73
2022-11-15T04:40:39.868Z,3.73
2022-11-15T04:43:07.751Z,3.62
2022-11-15T04:45:35.635Z,3.74
2022-11-15T04:48:03.497Z,3.63
2022-11-15T04:50:31.410Z,3.62
2022-11-15T04:53:00.880Z,3.59
2022-11-15T04:55:28.803Z,3.54
2022-11-15T04:58:01.248Z,3.69
2022-11-15T05:00:30.548Z,3.71
2022-11-15T05:03:16.229Z,3.78
2022-11-15T05:05:44.574Z,3.55
2022-11-15T05:08:13.885Z,3.74
2022-11-15T05:10:41.838Z,3.77
2022-11-15T05:13:09.791Z,3.78
2022-11-15T05:15:37.727Z,3.85
2022-11-15T05:18:05.672Z,3.87
2022-11-15T05:20:33.642Z,3.89
2022-11-15T05:23:01.678Z,3.70
2022-11-15T05:25:31.076Z,3.83
2022-11-15T05:27:59.106Z,3.59
2022-11-15T05:30:27.075Z,3.66
2022-11-15T05:32:55.855Z,3.66
2022-11-15T05:35:35.135Z,3.77
2022-11-15T05:38:03.130Z,3.70
2022-11-15T05:40:33.521Z,3.63
2022-11-15T05:43:04.058Z,3.62
2022-11-15T05:45:33.570Z,3.66
2022-11-15T05:48:06.832Z,3.58
2022-11-15T05:50:35.716Z,3.69
2022-11-15T05:53:05.463Z,3.77
2022-11-15T05:55:34.990Z,3.80
2022-11-15T05:58:03.548Z,3.70
2022-11-15T06:00:42.125Z,3.80
2022-11-15T06:03:10.697Z,3.78
2022-11-15T06:05:39.435Z,3.72
2022-11-15T06:08:07.624Z,3.82
2022-11-15T06:10:37.203Z,3.74
2022-11-15T06:13:07.185Z,3.92
2022-11-15T06:15:36.008Z,4.00
2022-11-15T06:18:04.533Z,4.04
2022-11-15T06:20:32.650Z,3.92
2022-11-15T06:23:01.048Z,3.86
2022-11-15T06:25:29.982Z,3.76
2022-11-15T06:28:01.992Z,3.86
2022-11-15T06:30:31.186Z,3.83
2022-11-15T06:33:04.115Z,3.84
2022-11-15T06:35:35.274Z,3.76
2022-11-15T06:38:08.464Z,3.93
2022-11-15T06:40:37.196Z,3.95
2022-11-15T06:43:08.301Z,4.06
2022-11-15T06:45:36.398Z,4.15
2022-11-15T06:48:04.490Z,4.13
2022-11-15T06:50:32.624Z,4.08
2022-11-15T06:53:04.079Z,4.23
2022-11-15T06:55:32.516Z,4.14
2022-11-15T06:58:00.519Z,4.31
2022-11-15T07:00:30.022Z,4.36
2022-11-15T07:03:02.320Z,4.27
2022-11-15T07:05:31.627Z,4.35
2022-11-15T07:08:01.049Z,4.39
2022-11-15T07:10:29.586Z,4.16
2022-11-15T07:12:58.438Z,4.21
2022-11-15T07:15:28.123Z,4.32
2022-11-15T07:17:58.874Z,4.19
2022-11-15T07:20:27.242Z,4.10
2022-11-15T07:23:05.060Z,4.19
2022-11-15T07:25:33.340Z,4.30
2022-11-15T07:28:02.385Z,4.26
2022-11-15T07:30:31.314Z,4.38
2022-11-15T07:33:02.735Z,4.44
2022-11-15T07:35:37.148Z,4.58
2022-11-15T07:40:49.857Z,4.53
2022-11-15T07:43:24.879Z,4.61
2022-11-15T07:45:58.611Z,4.77
2022-11-15T07:48:42.978Z,4.68
2022-11-15T07:51:14.946Z,4.82
2022-11-15T07:53:44.449Z,4.84
2022-11-15T07:56:12.609Z,4.79
2022-11-15T07:58:40.844Z,4.86
2022-11-15T08:01:10.617Z,4.84
2022-11-15T08:03:40.268Z,4.67
2022-11-15T08:06:08.837Z,4.66
2022-11-15T08:08:37.393Z,4.75
2022-11-15T08:11:06.935Z,4.80
2022-11-15T08:13:35.366Z,4.80
2022-11-15T08:16:06.623Z,4.83
2022-11-15T08:18:34.781Z,4.65
2022-11-15T08:21:04.598Z,4.65
2022-11-15T08:23:40.064Z,4.69
2022-11-15T08:26:08.283Z,4.64
2022-11-15T08:28:36.800Z,4.72
2022-11-15T08:31:07.749Z,4.78
2022-11-15T08:33:36.197Z,4.89
2022-11-15T08:36:07.505Z,4.96
2022-11-15T08:38:36.151Z,5.11
2022-11-15T08:41:08.392Z,5.08
2022-11-15T08:43:39.829Z,5.21
2022-11-15T08:46:07.961Z,5.17
2022-11-15T08:48:36.669Z,5.30
2022-11-15T08:51:08.121Z,5.30
2022-11-15T08:53:36.695Z,5.36
2022-11-15T08:56:05.318Z,5.22
2022-11-15T08:58:34.515Z,5.20
2022-11-15T09:01:03.252Z,5.14
2022-11-15T09:03:33.134Z,5.25
2022-11-15T09:06:04.529Z,5.34
2022-11-15T09:08:47.605Z,5.33
2022-11-15T09:11:17.755Z,5.52
2022-11-15T09:13:45.951Z,5.67
2022-11-15T09:16:41.431Z,5.59
2022-11-15T09:19:11.816Z,5.78
2022-11-15T09:21:40.583Z,5.80
2022-11-15T09:24:10.302Z,5.84
2022-11-15T09:26:38.531Z,6.00
2022-11-15T09:29:10.986Z,5.96
2022-11-15T09:31:39.082Z,6.12
2022-11-15T09:34:07.258Z,6.11
2022-11-15T09:36:35.355Z,6.11
2022-11-15T09:39:03.959Z,5.98
2022-11-15T09:42:09.639Z,6.12
2022-11-15T09:48:14.521Z,5.99
2022-11-15T09:50:47.916Z,6.11
2022-11-15T09:53:50.746Z,6.12
2022-11-15T09:56:20.702Z,6.20
2022-11-15T09:58:59.168Z,6.33
2022-11-15T10:01:39.080Z,6.41
2022-11-15T10:04:11.814Z,6.81
2022-11-15T10:06:49.306Z,7.03
2022-11-15T10:09:30.287Z,7.28
2022-11-15T10:12:03.514Z,7.77
2022-11-15T10:14:33.821Z,8.10
2022-11-15T10:17:20.698Z,8.72
2022-11-15T10:20:05.019Z,9.36
2022-11-15T10:22:40.825Z,9.59
2022-11-15T10:25:24.877Z,9.81
2022-11-15T10:27:57.278Z,9.94
2022-11-15T10:30:33.627Z,9.71
2022-11-15T10:33:13.790Z,10.27
2022-11-15T10:35:45.096Z,10.40
2022-11-15T10:38:14.892Z,10.44
2022-11-15T10:40:44.991Z,10.54
2022-11-15T10:43:19.016Z,10.79
2022-11-15T10:45:49.895Z,11.07
2022-11-15T10:48:27.506Z,11.39
2022-11-15T10:50:58.321Z,11.61
2022-11-15T10:53:33.175Z,11.87
2022-11-15T10:56:05.921Z,12.12
2022-11-15T10:58:41.778Z,11.98
2022-11-15T11:01:16.252Z,11.91
2022-11-15T11:03:46.574Z,12.15
2022-11-15T11:06:19.284Z,12.40
2022-11-15T11:09:01.755Z,12.46
2022-11-15T11:11:47.479Z,12.82
2022-11-15T11:14:29.872Z,12.90
2022-11-15T11:17:05.555Z,12.63
2022-11-15T11:19:56.031Z,12.65
2022-11-15T11:22:34.679Z,12.58
2022-11-15T11:25:19.821Z,12.82
2022-11-15T11:28:00.801Z,12.72
2022-11-15T11:30:42.483Z,12.70
2022-11-15T11:33:19.081Z,12.59
2022-11-15T11:35:58.379Z,12.91
2022-11-15T11:38:41.029Z,12.99
2022-11-15T11:41:22.593Z,13.14
2022-11-15T11:43:58.783Z,13.21
2022-11-15T11:46:50.371Z,13.12
2022-11-15T11:49:24.371Z,13.26
2022-11-15T11:51:58.122Z,13.35
2022-11-15T11:54:37.087Z,13.60
2022-11-15T11:57:12.242Z,13.49
2022-11-15T11:59:48.032Z,13.44
2022-11-15T12:02:27.449Z,13.48
2022-11-15T12:05:00.304Z,13.40
2022-11-15T12:07:33.423Z,13.49
2022-11-15T12:10:07.626Z,13.56
2022-11-15T12:12:42.888Z,13.62
2022-11-15T12:15:19.873Z,13.49
2022-11-15T12:17:49.363Z,13.57
2022-11-15T12:20:21.667Z,13.72
2022-11-15T12:22:59.108Z,13.80
2022-11-15T12:25:34.921Z,13.87
2022-11-15T12:28:14.203Z,13.77
2022-11-15T12:33:57.441Z,14.20
2022-11-15T12:36:41.322Z,14.19
2022-11-15T12:39:10.881Z,14.25
2022-11-15T12:41:41.532Z,14.66
2022-11-15T12:44:16.837Z,14.42
2022-11-15T12:47:25.591Z,14.60
2022-11-15T12:50:02.763Z,14.46
2022-11-15T12:52:31.561Z,14.51
2022-11-15T12:55:06.283Z,14.54
2022-11-15T12:57:41.152Z,14.57
2022-11-15T13:00:48.119Z,14.55
2022-11-15T13:03:26.760Z,14.55
2022-11-15T13:06:11.728Z,14.20
2022-11-15T13:08:48.422Z,14.27
2022-11-15T13:11:53.350Z,14.13
2022-11-15T13:14:58.230Z,14.60
2022-11-15T13:17:38.964Z,14.11
2022-11-15T13:20:32.804Z,14.15
2022-11-15T13:23:12.739Z,13.97
2022-11-15T13:26:13.925Z,14.11
2022-11-15T13:28:46.816Z,14.09
2022-11-15T13:31:38.287Z,14.08
2022-11-15T13:34:53.582Z,13.71
2022-11-15T13:37:30.925Z,13.49
2022-11-15T13:40:20.450Z,13.28
2022-11-15T13:42:49.090Z,13.25
2022-11-15T13:45:19.947Z,13.30
2022-11-15T13:47:54.132Z,13.15
2022-11-15T13:50:27.044Z,12.91
2022-11-15T13:52:57.687Z,12.78
2022-11-15T13:55:29.560Z,12.61
2022-11-15T13:58:00.864Z,12.33
2022-11-15T14:00:37.714Z,12.32
2022-11-15T14:03:17.657Z,12.21
2022-11-15T14:05:46.027Z,12.07
2022-11-15T14:08:25.550Z,12.00
2022-11-15T14:11:14.897Z,11.75
2022-11-15T14:13:44.394Z,11.75
2022-11-15T14:16:18.592Z,11.75
2022-11-15T14:18:49.009Z,11.81
2022-11-15T14:21:18.342Z,11.82
2022-11-15T14:23:47.136Z,11.72
2022-11-15T14:26:33.420Z,11.83
2022-11-15T14:29:27.080Z,11.60
2022-11-15T14:31:55.595Z,11.32
2022-11-15T14:34:23.711Z,11.02
2022-11-15T14:36:52.879Z,10.81
2022-11-15T14:39:22.536Z,10.55
2022-11-15T14:41:52.565Z,10.43
2022-11-15T14:44:21.831Z,10.15
2022-11-15T14:46:50.012Z,10.19
2022-11-15T14:49:18.312Z,9.92
2022-11-15T14:51:46.467Z,9.71
2022-11-15T14:54:20.587Z,9.52
2022-11-15T14:56:48.780Z,9.54
2022-11-15T14:59:18.748Z,9.45
2022-11-15T15:01:47.519Z,9.29
2022-11-15T15:04:15.630Z,9.06
2022-11-15T15:06:44.741Z,9.15
2022-11-15T15:09:14.705Z,8.94
2022-11-15T15:11:47.881Z,8.90
2022-11-15T15:14:19.869Z,8.79
2022-11-15T15:16:57.727Z,8.58
2022-11-15T15:19:30.453Z,8.43
2022-11-15T15:24:55.877Z,8.30
2022-11-15T15:27:37.912Z,8.44
2022-11-15T15:30:09.985Z,8.33
2022-11-15T15:32:39.338Z,8.38
2022-11-15T15:35:12.076Z,8.25
2022-11-15T15:37:40.449Z,8.35
2022-11-15T15:40:17.042Z,8.23
2022-11-15T15:42:46.145Z,8.27
2022-11-15T15:45:21.975Z,8.26
2022-11-15T15:47:53.462Z,8.15
2022-11-15T15:50:27.581Z,8.26
2022-11-15T15:53:12.187Z,8.24
2022-11-15T15:55:44.555Z,8.16
2022-11-15T15:58:12.768Z,8.35
2022-11-15T16:00:42.894Z,8.19
2022-11-15T16:03:25.446Z,8.07
2022-11-15T16:09:14.264Z,7.83
2022-11-15T16:12:08.666Z,7.77
2022-11-15T16:17:40.275Z,7.74
2022-11-15T16:23:13.316Z,7.48
2022-11-15T16:25:44.788Z,7.44
2022-11-15T16:28:20.261Z,7.42
2022-11-15T16:30:52.432Z,7.34
2022-11-15T16:33:30.390Z,7.29
2022-11-15T16:35:58.890Z,7.17
2022-11-15T16:38:29.040Z,7.12
2022-11-15T16:40:57.607Z,7.10
2022-11-15T16:43:26.476Z,7.12
2022-11-15T16:45:55.184Z,7.12
2022-11-15T16:48:26.655Z,7.08
2022-11-15T16:50:58.577Z,6.92
2022-11-15T16:53:29.239Z,6.88
2022-11-15T16:55:57.989Z,6.97
2022-11-15T16:58:28.055Z,6.94
2022-11-15T17:00:59.672Z,7.02
2022-11-15T17:03:27.809Z,7.01
2022-11-15T17:05:59.717Z,7.16
2022-11-15T17:08:29.477Z,7.16
2022-11-15T17:11:01.987Z,7.24
2022-11-15T17:13:32.312Z,7.22
2022-11-15T17:18:53.980Z,7.09
2022-11-15T17:21:24.116Z,6.92
2022-11-15T17:23:53.592Z,6.82
2022-11-15T17:26:30.174Z,6.91
2022-11-15T17:29:01.030Z,6.84
2022-11-15T17:31:30.785Z,6.99
2022-11-15T17:33:58.984Z,7.08
2022-11-15T17:36:27.016Z,7.02
2022-11-15T17:38:59.786Z,7.02
2022-11-15T17:41:28.756Z,7.19
2022-11-15T17:43:58.485Z,6.92
2022-11-15T17:46:28.652Z,6.87
2022-11-15T17:48:57.542Z,6.80
2022-11-15T17:51:25.910Z,6.94
2022-11-15T17:53:53.996Z,6.87
2022-11-15T17:56:31.620Z,6.82
2022-11-15T17:59:02.146Z,6.78
2022-11-15T18:01:31.660Z,6.67
2022-11-15T18:04:02.105Z,6.63
2022-11-15T18:06:32.138Z,6.65
2022-11-15T18:09:08.188Z,6.53
2022-11-15T18:11:39.673Z,6.41
2022-11-15T18:14:11.284Z,6.47
2022-11-15T18:16:40.360Z,6.55
2022-11-15T18:19:13.358Z,6.51
2022-11-15T18:21:59.030Z,6.39
2022-11-15T18:24:31.270Z,6.39
2022-11-15T18:27:03.173Z,6.27
2022-11-15T18:29:32.563Z,6.12
2022-11-15T18:32:00.688Z,6.25
2022-11-15T18:34:39.711Z,6.15
2022-11-15T18:37:08.486Z,6.22
2022-11-15T18:39:36.722Z,6.21
2022-11-15T18:42:06.683Z,6.14
2022-11-15T18:44:34.854Z,6.13
2022-11-15T18:47:04.664Z,6.32
2022-11-15T18:49:32.835Z,6.14
2022-11-15T18:52:00.842Z,6.25
2022-11-15T18:54:31.350Z,6.03
2022-11-15T18:56:59.982Z,6.08
2022-11-15T18:59:30.769Z,6.20
2022-11-15T19:01:59.704Z,6.08
2022-11-15T19:04:27.980Z,6.03
2022-11-15T19:06:56.233Z,5.98
2022-11-15T19:09:27.426Z,5.88
2022-11-15T19:11:55.702Z,5.94
2022-11-15T19:14:26.431Z,5.94
2022-11-15T19:16:56.144Z,5.90
2022-11-15T19:19:26.476Z,6.01
2022-11-15T19:21:57.968Z,5.97
2022-11-15T19:24:45.004Z,6.02
2022-11-15T19:27:13.253Z,6.06
2022-11-15T19:29:42.085Z,6.09
2022-11-15T19:32:11.733Z,6.09
2022-11-15T19:34:41.741Z,6.08
2022-11-15T19:37:10.604Z,5.96
2022-11-15T19:39:41.169Z,5.96
2022-11-15T19:42:09.556Z,5.98
2022-11-15T19:44:38.200Z,5.94
2022-11-15T19:47:09.379Z,6.02
2022-11-15T19:49:39.524Z,6.01
2022-11-15T19:52:10.272Z,6.14
2022-11-15T19:54:38.471Z,6.28
2022-11-15T19:57:08.110Z,6.07
2022-11-15T19:59:36.209Z,5.98
2022-11-15T20:02:04.343Z,5.97
2022-11-15T20:04:32.517Z,5.74
2022-11-15T20:07:02.173Z,5.64
2022-11-15T20:09:30.959Z,5.71
2022-11-15T20:11:59.221Z,5.61
2022-11-15T20:14:29.431Z,5.65
2022-11-15T20:16:58.293Z,5.68
2022-11-15T20:19:26.348Z,5.68
2022-11-15T20:21:57.566Z,5.78
2022-11-15T20:24:29.381Z,5.68
2022-11-15T20:26:58.564Z,5.75
2022-11-15T20:29:26.607Z,5.67
2022-11-15T20:31:55.731Z,5.86
2022-11-15T20:34:23.899Z,5.76
2022-11-15T20:36:51.835Z,5.67
2022-11-15T20:39:20.969Z,5.46
2022-11-15T20:41:50.449Z,5.38
2022-11-15T20:44:18.414Z,5.45
2022-11-15T20:46:47.567Z,5.48
2022-11-15T20:49:15.615Z,5.51
2022-11-15T20:51:45.109Z,5.51
2022-11-15T20:54:13.367Z,5.63
2022-11-15T20:56:41.455Z,5.65
2022-11-15T20:59:11.428Z,5.63
2022-11-15T21:01:39.890Z,5.68
2022-11-15T21:04:08.048Z,5.80
2022-11-15T21:06:36.405Z,5.74
2022-11-15T21:09:22.192Z,5.80
2022-11-15T21:12:08.128Z,5.80
2022-11-15T21:14:38.536Z,5.71
2022-11-15T21:17:06.785Z,5.72
2022-11-15T21:19:37.102Z,5.72
2022-11-15T21:22:08.684Z,5.70
2022-11-15T21:24:36.817Z,5.81
2022-11-15T21:27:05.141Z,5.79
2022-11-15T21:29:39.127Z,5.78
2022-11-15T21:32:10.028Z,5.76
2022-11-15T21:34:38.246Z,5.53
2022-11-15T21:37:06.440Z,5.65
2022-11-15T21:39:37.089Z,5.55
2022-11-15T21:42:05.659Z,5.61
2022-11-15T21:44:33.704Z,5.47
2022-11-15T21:47:02.418Z,5.47
2022-11-15T21:49:32.764Z,5.40
2022-11-15T21:52:00.906Z,5.48
2022-11-15T21:54:29.057Z,5.52
2022-11-15T21:56:57.081Z,5.62
2022-11-15T21:59:25.239Z,5.64
2022-11-15T22:02:10.721Z,5.33
2022-11-15T22:04:40.128Z,5.35
2022-11-15T22:10:03.918Z,5.34
2022-11-15T22:12:32.125Z,5.56
2022-11-15T22:15:00.176Z,5.39
2022-11-15T22:17:48.379Z,5.40
2022-11-15T22:23:08.061Z,5.35
2022-11-15T22:25:36.119Z,5.34
2022-11-15T22:28:04.439Z,5.30
2022-11-15T22:30:32.605Z,5.22
2022-11-15T22:33:00.752Z,5.10
2022-11-15T22:35:30.307Z,5.03
2022-11-15T22:37:58.767Z,5.11
2022-11-15T22:40:26.977Z,5.04
2022-11-15T22:42:55.006Z,4.99
2022-11-15T22:45:23.314Z,4.97
2022-11-15T22:47:51.528Z,5.07
2022-11-15T22:50:20.213Z,4.96
2022-11-15T22:52:49.816Z,4.90
2022-11-15T22:55:20.096Z,4.82
2022-11-15T22:57:48.153Z,5.01
2022-11-15T23:00:19.145Z,5.01
2022-11-15T23:02:51.777Z,5.21
2022-11-15T23:05:21.512Z,5.14
2022-11-15T23:07:51.407Z,5.08
2022-11-15T23:10:37.195Z,5.00
2022-11-15T23:13:18.469Z,5.00
2022-11-15T23:16:06.106Z,4.97
2022-11-15T23:18:37.839Z,4.97
2022-11-15T23:21:12.874Z,4.88
2022-11-15T23:23:41.386Z,4.87
2022-11-15T23:26:09.824Z,4.80
2022-11-15T23:28:37.826Z,4.84
2022-11-15T23:31:24.477Z,4.96
2022-11-15T23:34:01.360Z,4.86
2022-11-15T23:36:30.079Z,4.79
2022-11-15T23:38:59.498Z,4.79
2022-11-15T23:41:27.527Z,4.83
2022-11-15T23:43:55.998Z,4.97
2022-11-15T23:46:23.963Z,4.97
2022-11-15T23:48:51.942Z,4.80
2022-11-15T23:51:20.098Z,4.81
2022-11-15T23:53:48.193Z,4.79
2022-11-15T23:56:19.634Z,4.77
2022-11-15T23:58:48.198Z,4.94
